createdAt,value
2023-01-20T00:01:32.316Z,41.13
2023-01-20T00:04:00.983Z,40.65
2023-01-20T00:06:29.895Z,40.00
2023-01-20T00:08:59.487Z,42.08
2023-01-20T00:16:27.893Z,40.60
2023-01-20T00:18:56.332Z,39.63
2023-01-20T00:21:24.750Z,47.60
2023-01-20T00:23:53.199Z,45.97
2023-01-20T00:26:23.195Z,47.67
2023-01-20T00:31:25.398Z,38.00
2023-01-20T00:33:55.536Z,38.05
2023-01-20T00:36:25.219Z,42.97
2023-01-20T00:38:54.282Z,31.95
2023-01-20T00:41:22.324Z,37.30
2023-01-20T00:43:50.605Z,34.70
2023-01-20T00:46:20.934Z,36.95
2023-01-20T00:51:16.734Z,36.75
2023-01-20T00:53:45.609Z,36.42
2023-01-20T00:56:13.652Z,37.53
2023-01-20T00:58:43.936Z,32.97
2023-01-20T01:01:13.110Z,32.00
2023-01-20T01:03:42.574Z,39.33
2023-01-20T01:06:13.687Z,36.38
2023-01-20T01:08:41.738Z,38.65
2023-01-20T01:11:10.928Z,36.33
2023-01-20T01:13:39.776Z,33.15
2023-01-20T01:16:12.561Z,35.72
2023-01-20T01:18:43.419Z,32.70
2023-01-20T01:21:12.449Z,36.70
2023-01-20T01:23:41.534Z,42.15
2023-01-20T01:26:10.088Z,33.42
2023-01-20T01:28:38.493Z,41.43
2023-01-20T01:31:09.206Z,37.53
2023-01-20T01:33:37.809Z,38.80
2023-01-20T01:36:09.428Z,41.42
2023-01-20T01:38:37.322Z,36.78
2023-01-20T01:41:05.912Z,37.38
2023-01-20T01:43:36.606Z,39.08
2023-01-20T01:46:04.838Z,41.10
2023-01-20T01:48:37.402Z,41.45
2023-01-20T01:51:10.678Z,42.13
2023-01-20T01:53:42.738Z,42.78
2023-01-20T01:56:12.974Z,39.75
2023-01-20T01:58:46.928Z,37.92
2023-01-20T02:01:15.977Z,41.65
2023-01-20T02:03:55.688Z,45.60
2023-01-20T02:06:28.510Z,41.67
2023-01-20T02:08:56.780Z,48.05
2023-01-20T02:11:25.083Z,45.03
2023-01-20T02:13:54.211Z,44.72
2023-01-20T02:16:29.754Z,42.53
2023-01-20T02:19:15.234Z,46.53
2023-01-20T02:22:15.227Z,47.63
2023-01-20T02:25:07.137Z,49.67
2023-01-20T02:28:19.296Z,52.25
2023-01-20T02:31:23.972Z,49.42
2023-01-20T02:33:58.131Z,45.50
2023-01-20T02:36:33.324Z,52.67
2023-01-20T02:39:06.347Z,47.78
2023-01-20T02:41:42.768Z,45.30
2023-01-20T02:44:18.954Z,45.95
2023-01-20T02:46:54.233Z,44.83
2023-01-20T02:49:28.407Z,49.42
2023-01-20T02:52:01.627Z,48.33
2023-01-20T02:54:33.904Z,48.20
2023-01-20T02:57:05.521Z,46.50
2023-01-20T02:59:37.467Z,46.03
2023-01-20T03:02:10.417Z,47.30
2023-01-20T03:04:42.698Z,45.05
2023-01-20T03:07:15.008Z,48.80
2023-01-20T03:09:46.269Z,52.95
2023-01-20T03:12:19.265Z,56.00
2023-01-20T03:14:47.325Z,48.17
2023-01-20T03:17:15.279Z,43.38
2023-01-20T03:19:45.613Z,46.60
2023-01-20T03:24:42.506Z,45.42
2023-01-20T03:27:13.528Z,44.42
2023-01-20T03:29:41.465Z,47.13
2023-01-20T03:32:11.591Z,44.83
2023-01-20T03:34:43.590Z,43.92
2023-01-20T03:37:14.070Z,46.63
2023-01-20T03:39:42.502Z,48.22
2023-01-20T03:42:14.387Z,41.80
2023-01-20T03:44:58.329Z,47.22
2023-01-20T03:47:41.050Z,45.85
2023-01-20T03:50:16.836Z,40.33
2023-01-20T03:52:52.819Z,41.45
2023-01-20T03:55:25.683Z,37.72
2023-01-20T03:57:58.939Z,40.42
2023-01-20T04:00:29.617Z,41.55
2023-01-20T04:03:01.146Z,39.47
2023-01-20T04:05:30.690Z,41.55
2023-01-20T04:08:03.478Z,38.40
2023-01-20T04:10:33.940Z,43.40
2023-01-20T04:13:01.891Z,40.30
2023-01-20T04:15:34.150Z,39.78
2023-01-20T04:18:12.740Z,40.63
2023-01-20T04:20:42.172Z,41.73
2023-01-20T04:23:17.921Z,41.47
2023-01-20T04:25:46.769Z,42.58
2023-01-20T04:28:14.699Z,39.95
2023-01-20T04:30:43.813Z,51.35
2023-01-20T04:33:11.762Z,44.13
2023-01-20T04:35:40.167Z,42.30
2023-01-20T04:38:08.581Z,45.60
2023-01-20T04:40:37.899Z,40.60
2023-01-20T04:43:06.333Z,41.60
2023-01-20T04:45:34.737Z,41.78
2023-01-20T04:48:06.290Z,40.85
2023-01-20T04:50:34.945Z,39.97
2023-01-20T04:53:03.304Z,41.25
2023-01-20T04:55:32.866Z,36.30
2023-01-20T04:58:03.095Z,39.90
2023-01-20T05:00:33.318Z,40.65
2023-01-20T05:03:02.534Z,44.13
2023-01-20T05:05:31.436Z,40.88
2023-01-20T05:07:59.727Z,41.53
2023-01-20T05:10:28.647Z,41.40
2023-01-20T05:12:56.590Z,36.92
2023-01-20T05:15:26.502Z,33.92
2023-01-20T05:20:22.690Z,35.67
2023-01-20T05:22:51.537Z,37.15
2023-01-20T05:25:19.432Z,35.15
2023-01-20T05:27:48.086Z,34.75
2023-01-20T05:30:17.288Z,37.17
2023-01-20T05:32:49.806Z,33.85
2023-01-20T05:35:18.977Z,29.60
2023-01-20T05:37:46.842Z,35.95
2023-01-20T05:40:14.837Z,33.80
2023-01-20T05:42:43.293Z,30.88
2023-01-20T05:45:11.754Z,33.30
2023-01-20T05:47:39.675Z,35.08
2023-01-20T05:50:13.965Z,34.58
2023-01-20T05:52:42.525Z,32.97
2023-01-20T05:55:10.974Z,31.15
2023-01-20T05:57:39.412Z,28.42
2023-01-20T06:00:09.159Z,31.73
2023-01-20T06:02:37.277Z,31.33
2023-01-20T06:05:06.283Z,31.13
2023-01-20T06:07:36.431Z,32.45
2023-01-20T06:10:04.720Z,31.73
2023-01-20T06:12:33.686Z,35.58
2023-01-20T06:15:01.647Z,32.85
2023-01-20T06:17:30.175Z,32.22
2023-01-20T06:20:00.594Z,34.65
2023-01-20T06:22:29.021Z,37.97
2023-01-20T06:24:58.738Z,33.50
2023-01-20T06:27:27.165Z,35.05
2023-01-20T06:29:55.079Z,34.33
2023-01-20T06:32:24.211Z,37.22
2023-01-20T06:34:53.000Z,37.67
2023-01-20T06:37:21.516Z,38.45
2023-01-20T06:39:49.904Z,36.03
2023-01-20T06:42:19.194Z,36.78
2023-01-20T06:44:47.657Z,41.75
2023-01-20T06:47:16.011Z,41.85
2023-01-20T06:49:43.973Z,38.78
2023-01-20T06:52:11.908Z,35.47
2023-01-20T06:54:41.617Z,47.75
2023-01-20T06:57:09.516Z,35.70
2023-01-20T06:59:39.439Z,40.78
2023-01-20T07:02:07.921Z,38.50
2023-01-20T07:04:35.920Z,42.53
2023-01-20T07:07:03.833Z,39.70
2023-01-20T07:09:32.846Z,47.55
2023-01-20T07:12:00.764Z,38.28
2023-01-20T07:14:29.207Z,41.55
2023-01-20T07:16:58.920Z,39.17
2023-01-20T07:19:27.016Z,37.67
2023-01-20T07:21:54.928Z,39.50
2023-01-20T07:24:23.811Z,40.72
2023-01-20T07:26:53.638Z,41.08
2023-01-20T07:29:22.720Z,41.33
2023-01-20T07:31:50.720Z,39.35
2023-01-20T07:34:20.522Z,37.72
2023-01-20T07:36:48.473Z,35.83
2023-01-20T07:39:20.130Z,37.92
2023-01-20T07:41:50.222Z,39.67
2023-01-20T07:44:18.412Z,38.00
2023-01-20T07:46:46.293Z,38.30
2023-01-20T07:49:16.160Z,38.85
2023-01-20T07:51:45.451Z,41.58
2023-01-20T07:54:13.891Z,37.25
2023-01-20T07:56:42.461Z,44.15
2023-01-20T07:59:11.464Z,41.72
2023-01-20T08:01:39.446Z,38.70
2023-01-20T08:04:08.406Z,41.67
2023-01-20T08:06:36.236Z,37.28
2023-01-20T08:09:06.024Z,35.92
2023-01-20T08:11:34.288Z,40.35
2023-01-20T08:14:02.261Z,41.25
2023-01-20T08:16:30.167Z,38.22
2023-01-20T08:18:59.236Z,38.88
2023-01-20T08:21:28.430Z,36.90
2023-01-20T08:23:58.453Z,34.78
2023-01-20T08:29:03.377Z,43.58
2023-01-20T08:31:31.880Z,32.28
2023-01-20T08:34:00.188Z,36.15
2023-01-20T08:36:31.791Z,37.78
2023-01-20T08:39:02.125Z,39.17
2023-01-20T08:41:34.368Z,36.08
2023-01-20T08:44:04.931Z,38.15
2023-01-20T08:46:33.836Z,35.67
2023-01-20T08:49:01.746Z,31.85
2023-01-20T08:51:32.214Z,37.25
2023-01-20T08:54:00.867Z,33.15
2023-01-20T08:56:29.230Z,36.60
2023-01-20T08:59:00.122Z,32.45
2023-01-20T09:01:30.840Z,34.22
2023-01-20T09:04:05.912Z,34.00
2023-01-20T09:06:39.869Z,36.35
2023-01-20T09:09:08.957Z,27.00
2023-01-20T09:11:37.418Z,31.55
2023-01-20T09:14:07.182Z,27.58
2023-01-20T09:16:36.073Z,33.95
2023-01-20T09:19:04.233Z,30.35
2023-01-20T09:21:33.106Z,32.08
2023-01-20T09:24:01.576Z,29.70
2023-01-20T09:26:38.763Z,28.10
2023-01-20T09:29:12.272Z,28.48
2023-01-20T09:31:44.332Z,31.95
2023-01-20T09:34:15.464Z,34.45
2023-01-20T09:36:43.452Z,30.42
2023-01-20T09:39:36.789Z,30.90
2023-01-20T09:42:36.052Z,27.77
2023-01-20T09:45:25.471Z,28.25
2023-01-20T09:48:02.317Z,30.83
2023-01-20T09:50:56.896Z,30.48
2023-01-20T09:53:35.943Z,32.78
2023-01-20T09:56:10.051Z,30.23
2023-01-20T09:58:44.716Z,29.52
2023-01-20T10:01:20.356Z,28.45
2023-01-20T10:03:53.904Z,29.73
2023-01-20T10:06:27.411Z,28.40
2023-01-20T10:09:05.911Z,25.90
2023-01-20T10:11:39.381Z,26.70
2023-01-20T10:14:18.358Z,30.98
2023-01-20T10:16:52.694Z,30.00
2023-01-20T10:19:28.528Z,29.05
2023-01-20T10:22:08.418Z,27.35
2023-01-20T10:29:37.487Z,25.10
2023-01-20T10:32:18.518Z,25.63
2023-01-20T10:34:48.137Z,24.85
2023-01-20T10:39:50.090Z,22.25
2023-01-20T10:42:19.729Z,24.25
2023-01-20T10:44:51.380Z,25.50
2023-01-20T10:47:26.305Z,20.73
2023-01-20T10:50:16.705Z,26.10
2023-01-20T10:55:43.894Z,20.42
2023-01-20T10:58:21.727Z,18.83
2023-01-20T11:00:51.679Z,22.33
2023-01-20T11:03:23.105Z,19.83
2023-01-20T11:05:54.093Z,21.35
2023-01-20T11:08:24.685Z,22.42
2023-01-20T11:10:57.556Z,24.48
2023-01-20T11:13:25.972Z,20.60
2023-01-20T11:15:58.006Z,22.00
2023-01-20T11:18:29.876Z,20.45
2023-01-20T11:21:01.973Z,23.10
2023-01-20T11:23:38.077Z,21.17
2023-01-20T11:26:10.157Z,18.48
2023-01-20T11:28:48.708Z,19.42
2023-01-20T11:31:17.558Z,18.10
2023-01-20T11:34:02.027Z,19.25
2023-01-20T11:36:30.892Z,17.92
2023-01-20T11:38:58.869Z,19.67
2023-01-20T11:41:29.432Z,22.60
2023-01-20T11:43:58.854Z,19.77
2023-01-20T11:46:30.613Z,16.63
2023-01-20T11:49:19.841Z,17.48
2023-01-20T11:51:51.753Z,16.95
2023-01-20T11:54:22.981Z,15.95
2023-01-20T11:56:55.796Z,18.23
2023-01-20T11:59:28.128Z,17.88
2023-01-20T12:02:02.156Z,17.38
2023-01-20T12:05:03.408Z,18.98
2023-01-20T12:07:35.207Z,18.45
2023-01-20T12:10:13.260Z,16.92
2023-01-20T12:12:46.950Z,17.48
2023-01-20T12:15:18.474Z,16.67
2023-01-20T12:17:53.433Z,20.02
2023-01-20T12:20:28.936Z,19.90
2023-01-20T12:23:09.284Z,21.27
2023-01-20T12:25:43.280Z,21.30
2023-01-20T12:28:16.912Z,18.40
2023-01-20T12:30:51.594Z,16.13
2023-01-20T12:33:25.752Z,15.57
2023-01-20T12:36:12.816Z,15.50
2023-01-20T12:38:53.993Z,19.50
2023-01-20T12:41:35.866Z,16.15
2023-01-20T12:44:14.866Z,13.77
2023-01-20T12:46:50.607Z,11.43
2023-01-20T12:49:46.577Z,13.55
2023-01-20T12:52:32.915Z,14.50
2023-01-20T12:55:21.982Z,11.82
2023-01-20T12:57:59.948Z,10.90
2023-01-20T13:00:51.383Z,11.27
2023-01-20T13:03:45.366Z,13.88
2023-01-20T13:06:43.405Z,11.48
2023-01-20T13:09:27.027Z,8.82
2023-01-20T13:12:07.994Z,11.02
2023-01-20T13:14:41.337Z,10.98
2023-01-20T13:17:19.188Z,10.68
2023-01-20T13:19:49.459Z,14.25
2023-01-20T13:22:20.979Z,10.98
2023-01-20T13:24:52.762Z,11.77
2023-01-20T13:27:26.206Z,9.77
2023-01-20T13:29:57.084Z,14.13
2023-01-20T13:32:34.994Z,13.88
2023-01-20T13:35:24.073Z,11.82
2023-01-20T13:37:54.339Z,12.85
2023-01-20T13:40:53.616Z,12.48
2023-01-20T13:43:54.489Z,12.52
2023-01-20T13:46:48.365Z,12.38
2023-01-20T13:49:44.118Z,11.82
2023-01-20T13:52:12.896Z,13.35
2023-01-20T13:54:46.181Z,11.23
2023-01-20T13:57:37.911Z,12.05
2023-01-20T14:00:17.945Z,12.63
2023-01-20T14:02:46.978Z,11.20
2023-01-20T14:05:31.582Z,10.95
2023-01-20T14:08:00.410Z,9.18
2023-01-20T14:10:29.325Z,9.40
2023-01-20T14:12:59.547Z,12.50
2023-01-20T14:15:39.874Z,12.32
2023-01-20T14:18:17.653Z,12.27
2023-01-20T14:20:58.039Z,13.25
2023-01-20T14:23:29.958Z,11.27
2023-01-20T14:26:00.092Z,13.30
2023-01-20T14:28:30.802Z,12.80
2023-01-20T14:31:40.736Z,12.02
2023-01-20T14:34:26.799Z,12.20
2023-01-20T14:36:57.536Z,13.98
2023-01-20T14:39:28.157Z,13.65
2023-01-20T14:41:57.618Z,13.95
2023-01-20T14:44:29.084Z,13.27
2023-01-20T14:46:59.375Z,12.38
2023-01-20T14:49:33.593Z,13.75
2023-01-20T14:52:02.304Z,12.15
2023-01-20T14:54:31.861Z,17.08
2023-01-20T14:57:12.631Z,15.30
2023-01-20T14:59:42.011Z,14.75
2023-01-20T15:02:19.203Z,12.75
2023-01-20T15:04:47.252Z,13.85
2023-01-20T15:07:21.060Z,15.40
2023-01-20T15:09:56.838Z,16.05
2023-01-20T15:12:42.986Z,16.05
2023-01-20T15:15:25.590Z,17.02
2023-01-20T15:18:18.374Z,14.82
2023-01-20T15:20:49.196Z,17.58
2023-01-20T15:23:22.576Z,16.75
2023-01-20T15:25:52.075Z,18.30
2023-01-20T15:28:25.397Z,17.55
2023-01-20T15:30:55.828Z,15.18
2023-01-20T15:33:25.446Z,17.27
2023-01-20T15:35:59.363Z,17.70
2023-01-20T15:38:30.273Z,16.83
2023-01-20T15:40:59.188Z,18.08
2023-01-20T15:43:27.175Z,15.82
2023-01-20T15:45:56.921Z,16.80
2023-01-20T15:48:24.849Z,15.55
2023-01-20T15:50:52.836Z,19.40
2023-01-20T15:53:21.377Z,19.60
2023-01-20T15:55:51.210Z,17.02
2023-01-20T15:58:28.718Z,14.32
2023-01-20T16:00:59.029Z,16.23
2023-01-20T16:03:28.882Z,17.45
2023-01-20T16:05:57.443Z,18.85
2023-01-20T16:08:35.035Z,19.33
2023-01-20T16:11:03.169Z,19.70
2023-01-20T16:13:31.020Z,20.70
2023-01-20T16:16:03.710Z,20.58
2023-01-20T16:18:32.123Z,18.48
2023-01-20T16:20:59.983Z,19.75
2023-01-20T16:23:28.816Z,18.58
2023-01-20T16:25:56.848Z,18.35
2023-01-20T16:28:25.279Z,20.83
2023-01-20T16:30:54.905Z,21.48
2023-01-20T16:33:25.865Z,17.27
2023-01-20T16:35:56.639Z,19.13
2023-01-20T16:38:26.175Z,19.15
2023-01-20T16:40:59.019Z,23.00
2023-01-20T16:43:27.153Z,21.00
2023-01-20T16:45:56.004Z,24.25
2023-01-20T16:48:27.432Z,22.75
2023-01-20T16:50:55.355Z,23.65
2023-01-20T16:53:23.266Z,23.55
2023-01-20T16:55:51.675Z,24.00
2023-01-20T16:58:19.566Z,25.63
2023-01-20T17:00:48.695Z,23.17
2023-01-20T17:03:16.750Z,24.95
2023-01-20T17:05:46.029Z,18.73
2023-01-20T17:08:15.001Z,24.17
2023-01-20T17:10:48.309Z,25.73
2023-01-20T17:13:17.315Z,24.00
2023-01-20T17:15:45.245Z,23.58
2023-01-20T17:18:13.619Z,25.13
2023-01-20T17:20:42.445Z,22.27
2023-01-20T17:23:11.938Z,24.73
2023-01-20T17:25:39.874Z,25.25
2023-01-20T17:28:08.863Z,24.05
2023-01-20T17:30:38.841Z,24.55
2023-01-20T17:33:08.421Z,26.08
2023-01-20T17:35:36.361Z,24.10
2023-01-20T17:38:04.772Z,26.48
2023-01-20T17:40:34.518Z,28.00
2023-01-20T17:43:03.454Z,26.67
2023-01-20T17:45:31.998Z,28.10
2023-01-20T17:48:01.658Z,28.00
2023-01-20T17:52:58.620Z,28.65
2023-01-20T17:55:27.115Z,26.05
2023-01-20T17:57:56.438Z,26.17
2023-01-20T18:00:24.363Z,25.95
2023-01-20T18:02:57.163Z,27.77
2023-01-20T18:05:25.176Z,25.13
2023-01-20T18:07:53.058Z,26.25
2023-01-20T18:10:21.528Z,25.05
2023-01-20T18:12:49.601Z,27.83
2023-01-20T18:15:19.543Z,25.15
2023-01-20T18:17:47.500Z,27.55
2023-01-20T18:20:18.088Z,27.73
2023-01-20T18:22:51.077Z,29.52
2023-01-20T18:25:19.589Z,28.58
2023-01-20T18:27:47.528Z,29.48
2023-01-20T18:30:16.708Z,26.83
2023-01-20T18:32:46.270Z,30.25
2023-01-20T18:35:14.693Z,29.92
2023-01-20T18:37:43.289Z,34.03
2023-01-20T18:40:12.424Z,31.48
2023-01-20T18:42:40.825Z,34.10
2023-01-20T18:45:10.600Z,32.00
2023-01-20T18:47:38.490Z,30.42
2023-01-20T18:52:59.674Z,33.83
2023-01-20T18:55:28.112Z,30.10
2023-01-20T18:57:56.544Z,33.22
2023-01-20T19:00:24.696Z,31.67
2023-01-20T19:02:53.237Z,31.63
2023-01-20T19:05:22.204Z,36.93
2023-01-20T19:07:51.909Z,33.63
2023-01-20T19:10:20.266Z,37.42
2023-01-20T19:12:49.025Z,33.08
2023-01-20T19:15:17.200Z,34.03
2023-01-20T19:17:45.248Z,30.77
2023-01-20T19:20:13.215Z,34.33
2023-01-20T19:22:41.190Z,31.63
2023-01-20T19:25:12.423Z,35.33
2023-01-20T19:27:40.348Z,34.53
2023-01-20T19:30:10.719Z,35.88
2023-01-20T19:32:41.282Z,33.45
2023-01-20T19:35:10.305Z,36.13
2023-01-20T19:37:38.565Z,28.45
2023-01-20T19:40:06.965Z,36.33
2023-01-20T19:42:36.243Z,35.72
2023-01-20T19:45:05.695Z,30.40
2023-01-20T19:47:34.914Z,35.83
2023-01-20T19:50:03.301Z,33.28
2023-01-20T19:52:31.632Z,33.58
2023-01-20T19:54:59.657Z,36.67
2023-01-20T19:57:28.196Z,34.30
2023-01-20T19:59:57.624Z,36.67
2023-01-20T20:02:27.625Z,34.45
2023-01-20T20:04:55.723Z,31.45
2023-01-20T20:07:23.665Z,35.45
2023-01-20T20:09:51.774Z,34.25
2023-01-20T20:12:20.158Z,31.20
2023-01-20T20:14:48.021Z,34.80
2023-01-20T20:17:17.599Z,35.38
2023-01-20T20:19:45.533Z,34.47
2023-01-20T20:22:13.436Z,33.70
2023-01-20T20:24:41.807Z,40.50
2023-01-20T20:27:09.650Z,38.33
2023-01-20T20:29:38.607Z,42.28
2023-01-20T20:32:07.137Z,46.03
2023-01-20T20:34:36.983Z,38.77
2023-01-20T20:37:05.372Z,39.25
2023-01-20T20:39:36.927Z,37.53
2023-01-20T20:42:04.978Z,39.45
2023-01-20T20:44:33.828Z,38.67
2023-01-20T20:47:01.741Z,35.45
2023-01-20T20:49:31.913Z,32.90
2023-01-20T20:52:01.244Z,33.72
2023-01-20T20:54:29.226Z,27.75
2023-01-20T20:56:57.653Z,35.42
2023-01-20T20:59:26.224Z,31.95
2023-01-20T21:01:54.423Z,32.85
2023-01-20T21:04:23.122Z,31.13
2023-01-20T21:06:51.654Z,35.90
2023-01-20T21:09:21.056Z,35.75
2023-01-20T21:11:49.461Z,36.08
2023-01-20T21:14:19.415Z,37.33
2023-01-20T21:16:48.976Z,34.38
2023-01-20T21:19:17.191Z,35.78
2023-01-20T21:21:46.333Z,37.22
2023-01-20T21:24:14.712Z,36.40
2023-01-20T21:26:44.864Z,34.90
2023-01-20T21:29:14.414Z,36.03
2023-01-20T21:31:42.385Z,40.85
2023-01-20T21:34:14.984Z,36.38
2023-01-20T21:36:43.328Z,40.17
2023-01-20T21:39:13.488Z,32.75
2023-01-20T21:41:42.449Z,35.30
2023-01-20T21:44:31.681Z,30.83
2023-01-20T21:47:02.343Z,33.92
2023-01-20T21:49:48.876Z,34.83
2023-01-20T21:52:37.510Z,38.42
2023-01-20T21:55:07.582Z,31.85
2023-01-20T21:57:36.101Z,38.15
2023-01-20T22:00:08.087Z,39.17
2023-01-20T22:02:43.447Z,37.53
2023-01-20T22:05:12.423Z,35.38
2023-01-20T22:07:40.462Z,37.30
2023-01-20T22:10:10.495Z,33.17
2023-01-20T22:15:09.971Z,32.08
2023-01-20T22:17:39.415Z,30.08
2023-01-20T22:20:08.254Z,32.33
2023-01-20T22:22:36.634Z,33.65
2023-01-20T22:25:05.296Z,31.83
2023-01-20T22:27:33.441Z,32.05
2023-01-20T22:30:01.437Z,36.20
2023-01-20T22:32:31.986Z,34.08
2023-01-20T22:35:00.067Z,34.00
2023-01-20T22:37:28.038Z,30.90
2023-01-20T22:39:57.429Z,31.30
2023-01-20T22:42:25.366Z,32.95
2023-01-20T22:44:53.443Z,36.97
2023-01-20T22:47:21.850Z,39.58
2023-01-20T22:49:52.032Z,33.00
2023-01-20T22:52:20.580Z,42.10
2023-01-20T22:54:48.659Z,44.65
2023-01-20T22:57:17.444Z,40.67
2023-01-20T22:59:45.400Z,38.08
2023-01-20T23:02:13.995Z,32.75
2023-01-20T23:04:42.063Z,32.53
2023-01-20T23:07:11.443Z,34.60
2023-01-20T23:12:07.988Z,31.20
2023-01-20T23:14:50.218Z,34.10
2023-01-20T23:17:18.694Z,38.38
2023-01-20T23:19:46.604Z,34.78
2023-01-20T23:22:16.523Z,33.90
2023-01-20T23:24:44.495Z,32.92
2023-01-20T23:27:12.507Z,35.33
2023-01-20T23:29:40.908Z,36.42
2023-01-20T23:32:09.385Z,32.10
2023-01-20T23:34:37.317Z,35.35
2023-01-20T23:37:06.195Z,32.08
2023-01-20T23:39:35.518Z,35.72
2023-01-20T23:42:03.933Z,31.40
2023-01-20T23:44:32.339Z,30.52
2023-01-20T23:47:00.347Z,34.13
2023-01-20T23:49:28.278Z,29.58
2023-01-20T23:51:56.795Z,31.60
2023-01-20T23:54:24.750Z,35.25
2023-01-20T23:56:54.556Z,36.58
2023-01-20T23:59:23.196Z,33.42
